Minneapolis, Minnesota
Traffic Map
Current Weather Conditions
Minneapolis, Minnesota
Scattered Clouds
Scattered Clouds
77°
Feels Like: 79°
Wind Chill: 77° Ceiling: Unl
Heat Index: 79° Visibility: 10mi
Dew Point: 57° Wind: 8mph
Humidity: 50% Direction: 140° (SE)
Pressure: 30.1in Gusts: 0mph
Raw Report DataKMSP 181553Z 14007KT 10SM SCT300 25/14 A3010 RMK AO2 SLP188 T02500139
Traffic Incident Summary
Active as of:
Severity:
Category:
InformationThere was an issue retrieving the traffic information for this location. Please try a different location or try again shortly.
Advertisements